createdAt,value
2023-01-28T00:02:42.722Z,94182.00
2023-01-28T00:06:46.265Z,94197.00
2023-01-28T00:10:51.377Z,94205.00
2023-01-28T00:14:54.792Z,94194.00
2023-01-28T00:18:58.291Z,94187.00
2023-01-28T00:23:32.323Z,94191.00
2023-01-28T00:27:37.225Z,94179.00
2023-01-28T00:31:44.864Z,94172.00
2023-01-28T00:35:49.193Z,94178.00
2023-01-28T00:39:52.652Z,94187.00
2023-01-28T00:44:13.119Z,94181.00
2023-01-28T00:48:16.625Z,94184.00
2023-01-28T00:52:20.203Z,94187.00
2023-01-28T00:57:14.857Z,94191.00
2023-01-28T01:01:21.736Z,94192.00
2023-01-28T01:05:25.506Z,94189.00
2023-01-28T01:09:48.765Z,94194.00
2023-01-28T01:13:58.213Z,94208.00
2023-01-28T01:18:03.217Z,94179.00
2023-01-28T01:22:06.797Z,94194.00
2023-01-28T01:26:10.995Z,94195.00
2023-01-28T01:31:07.821Z,94201.00
2023-01-28T01:35:13.648Z,94195.00
2023-01-28T01:39:17.654Z,94182.00
2023-01-28T01:43:48.558Z,94188.00
2023-01-28T01:47:58.578Z,94165.00
2023-01-28T01:52:09.840Z,94161.00
2023-01-28T01:56:20.660Z,94171.00
2023-01-28T02:00:24.294Z,94200.00
2023-01-28T02:04:32.375Z,94204.00
2023-01-28T02:08:44.600Z,94201.00
2023-01-28T02:13:45.792Z,94206.00
2023-01-28T02:17:51.243Z,94207.00
2023-01-28T02:22:44.232Z,94203.00
2023-01-28T02:27:20.462Z,94206.00
2023-01-28T02:31:28.887Z,94211.00
2023-01-28T02:36:46.686Z,94220.00
2023-01-28T02:41:40.096Z,94204.00
2023-01-28T02:51:08.831Z,94216.00
2023-01-28T02:55:30.892Z,94197.00
2023-01-28T02:59:57.610Z,94217.00
2023-01-28T03:04:06.141Z,94215.00
2023-01-28T03:13:21.101Z,94199.00
2023-01-28T03:17:47.929Z,94199.00
2023-01-28T03:26:52.547Z,94208.00
2023-01-28T03:31:28.480Z,94187.00
2023-01-28T03:35:54.536Z,94215.00
2023-01-28T03:39:58.919Z,94207.00
2023-01-28T03:49:26.176Z,94189.00
2023-01-28T03:53:30.252Z,94191.00
2023-01-28T03:58:00.978Z,94213.00
2023-01-28T04:02:06.036Z,94209.00
2023-01-28T04:06:11.701Z,94221.00
2023-01-28T04:10:33.572Z,94241.00
2023-01-28T04:14:55.625Z,94243.00
2023-01-28T04:19:03.816Z,94224.00
2023-01-28T04:23:29.849Z,94228.00
2023-01-28T04:27:33.284Z,94204.00
2023-01-28T04:31:47.307Z,94221.00
2023-01-28T04:36:16.268Z,94215.00
2023-01-28T04:40:28.998Z,94217.00
2023-01-28T04:44:35.175Z,94219.00
2023-01-28T04:48:58.942Z,94217.00
2023-01-28T04:53:29.304Z,94203.00
2023-01-28T04:57:45.526Z,94242.00
2023-01-28T05:01:49.200Z,94236.00
2023-01-28T05:06:10.536Z,94252.00
2023-01-28T05:10:20.674Z,94258.00
2023-01-28T05:14:26.979Z,94246.00
2023-01-28T05:18:39.606Z,94241.00
2023-01-28T05:22:47.076Z,94243.00
2023-01-28T05:26:55.493Z,94238.00
2023-01-28T05:31:23.272Z,94258.00
2023-01-28T05:35:26.980Z,94223.00
2023-01-28T05:39:31.545Z,94261.00
2023-01-28T05:43:40.490Z,94255.00
2023-01-28T05:48:20.139Z,94242.00
2023-01-28T05:53:01.847Z,94251.00
2023-01-28T05:57:09.732Z,94267.00
2023-01-28T06:07:15.778Z,94262.00
2023-01-28T06:11:21.233Z,94270.00
2023-01-28T06:15:26.676Z,94285.00
2023-01-28T06:19:41.545Z,94286.00
2023-01-28T06:23:47.115Z,94292.00
2023-01-28T06:27:50.684Z,94288.00
2023-01-28T06:31:54.289Z,94266.00
2023-01-28T06:42:23.646Z,94304.00
2023-01-28T06:46:34.260Z,94311.00
2023-01-28T06:50:37.789Z,94307.00
2023-01-28T06:54:41.222Z,94305.00
2023-01-28T06:58:46.370Z,94306.00
2023-01-28T07:02:51.302Z,94311.00
2023-01-28T07:06:54.884Z,94313.00
2023-01-28T07:12:12.292Z,94324.00
2023-01-28T07:16:17.301Z,94316.00
2023-01-28T07:21:12.685Z,94324.00
2023-01-28T07:25:17.210Z,94326.00
2023-01-28T07:29:20.798Z,94317.00
2023-01-28T07:33:35.088Z,94322.00
2023-01-28T07:37:38.622Z,94339.00
2023-01-28T07:41:42.139Z,94314.00
2023-01-28T07:45:48.677Z,94302.00
2023-01-28T07:49:53.770Z,94340.00
2023-01-28T07:53:57.220Z,94323.00
2023-01-28T07:58:28.399Z,94330.00
2023-01-28T08:02:58.069Z,94339.00
2023-01-28T08:07:08.168Z,94336.00
2023-01-28T08:11:12.135Z,94343.00
2023-01-28T08:16:34.641Z,94342.00
2023-01-28T08:20:38.131Z,94355.00
2023-01-28T08:25:43.175Z,94368.00
2023-01-28T08:29:48.185Z,94355.00
2023-01-28T08:33:51.767Z,94324.00
2023-01-28T08:37:55.728Z,94361.00
2023-01-28T08:41:59.220Z,94349.00
2023-01-28T08:46:06.973Z,94363.00
2023-01-28T08:50:11.536Z,94365.00
2023-01-28T08:54:15.375Z,94336.00
2023-01-28T08:58:45.269Z,94372.00
2023-01-28T09:03:00.685Z,94350.00
2023-01-28T09:07:04.150Z,94383.00
2023-01-28T09:11:07.752Z,94369.00
2023-01-28T09:15:12.809Z,94345.00
2023-01-28T09:19:23.713Z,94367.00
2023-01-28T09:23:52.362Z,94396.00
2023-01-28T09:27:57.158Z,94410.00
2023-01-28T09:32:00.711Z,94401.00
2023-01-28T09:36:09.316Z,94407.00
2023-01-28T09:40:24.338Z,94402.00
2023-01-28T09:45:11.866Z,94396.00
2023-01-28T09:49:23.321Z,94381.00
2023-01-28T09:53:33.892Z,94390.00
2023-01-28T09:57:42.205Z,94379.00
2023-01-28T10:02:04.242Z,94399.00
2023-01-28T10:06:29.827Z,94389.00
2023-01-28T10:15:57.550Z,94403.00
2023-01-28T10:20:05.063Z,94398.00
2023-01-28T10:24:29.125Z,94364.00
2023-01-28T10:28:46.244Z,94384.00
2023-01-28T10:37:18.215Z,94388.00
2023-01-28T10:47:03.930Z,94390.00
2023-01-28T10:51:07.791Z,94379.00
2023-01-28T10:55:47.807Z,94390.00
2023-01-28T10:59:51.647Z,94398.00
2023-01-28T11:04:18.413Z,94392.00
2023-01-28T11:08:26.672Z,94386.00
2023-01-28T11:13:02.772Z,94397.00
2023-01-28T11:17:18.678Z,94388.00
2023-01-28T11:21:26.974Z,94385.00
2023-01-28T11:25:33.955Z,94386.00
2023-01-28T11:29:42.278Z,94392.00
2023-01-28T11:33:50.876Z,94395.00
2023-01-28T11:37:56.030Z,94380.00
2023-01-28T11:42:16.282Z,94384.00
2023-01-28T11:46:37.799Z,94387.00
2023-01-28T11:50:49.278Z,94382.00
2023-01-28T11:55:11.167Z,94374.00
2023-01-28T11:59:31.105Z,94363.00
2023-01-28T12:04:07.250Z,94388.00
2023-01-28T12:08:22.749Z,94357.00
2023-01-28T12:12:53.689Z,94369.00
2023-01-28T12:17:07.179Z,94390.00
2023-01-28T12:21:22.630Z,94364.00
2023-01-28T12:25:41.288Z,94365.00
2023-01-28T12:30:15.309Z,94394.00
2023-01-28T12:34:42.628Z,94390.00
2023-01-28T12:38:56.466Z,94405.00
2023-01-28T12:47:44.601Z,94371.00
2023-01-28T12:51:58.999Z,94383.00
2023-01-28T12:56:09.620Z,94405.00
2023-01-28T13:00:28.081Z,94408.00
2023-01-28T13:04:40.337Z,94403.00
2023-01-28T13:08:44.484Z,94381.00
2023-01-28T13:12:49.042Z,94392.00
2023-01-28T13:16:52.692Z,94405.00
2023-01-28T13:21:16.836Z,94412.00
2023-01-28T13:25:29.188Z,94420.00
2023-01-28T13:29:35.114Z,94423.00
2023-01-28T13:33:41.630Z,94427.00
2023-01-28T13:37:48.805Z,94428.00
2023-01-28T13:42:12.227Z,94435.00
2023-01-28T13:46:29.198Z,94434.00
2023-01-28T13:50:44.290Z,94417.00
2023-01-28T13:55:01.969Z,94435.00
2023-01-28T13:59:40.933Z,94443.00
2023-01-28T14:04:12.989Z,94449.00
2023-01-28T14:08:40.798Z,94446.00
2023-01-28T14:13:10.204Z,94457.00
2023-01-28T14:17:24.837Z,94459.00
2023-01-28T14:21:30.210Z,94451.00
2023-01-28T14:25:44.565Z,94463.00
2023-01-28T14:30:05.580Z,94461.00
2023-01-28T14:34:46.346Z,94469.00
2023-01-28T14:38:50.439Z,94478.00
2023-01-28T14:43:00.673Z,94481.00
2023-01-28T14:47:53.308Z,94487.00
2023-01-28T14:52:54.523Z,94495.00
2023-01-28T14:57:42.269Z,94486.00
2023-01-28T15:01:59.687Z,94473.00
2023-01-28T15:06:43.242Z,94501.00
2023-01-28T15:10:54.110Z,94510.00
2023-01-28T15:14:57.853Z,94512.00
2023-01-28T15:19:03.647Z,94511.00
2023-01-28T15:23:09.797Z,94515.00
2023-01-28T15:27:20.278Z,94521.00
2023-01-28T15:31:25.925Z,94520.00
2023-01-28T15:35:29.416Z,94517.00
2023-01-28T15:39:35.241Z,94530.00
2023-01-28T15:43:40.242Z,94517.00
2023-01-28T15:48:04.215Z,94514.00
2023-01-28T15:57:31.931Z,94535.00
2023-01-28T16:01:36.159Z,94532.00
2023-01-28T16:05:42.658Z,94545.00
2023-01-28T16:09:52.354Z,94551.00
2023-01-28T16:14:23.522Z,94542.00
2023-01-28T16:18:35.730Z,94557.00
2023-01-28T16:22:44.361Z,94556.00
2023-01-28T16:27:21.435Z,94552.00
2023-01-28T16:31:39.729Z,94561.00
2023-01-28T16:36:05.131Z,94566.00
2023-01-28T16:40:13.036Z,94568.00
2023-01-28T16:44:17.434Z,94574.00
2023-01-28T16:48:22.699Z,94578.00
2023-01-28T16:52:28.534Z,94581.00
2023-01-28T16:56:46.734Z,94584.00
2023-01-28T17:00:50.958Z,94568.00
2023-01-28T17:04:57.127Z,94595.00
2023-01-28T17:13:17.486Z,94593.00
2023-01-28T17:17:20.955Z,94577.00
2023-01-28T17:21:35.368Z,94609.00
2023-01-28T17:30:24.751Z,94578.00
2023-01-28T17:34:54.352Z,94613.00
2023-01-28T17:39:06.139Z,94592.00
2023-01-28T17:43:12.726Z,94641.00
2023-01-28T17:47:30.992Z,94621.00
2023-01-28T17:51:39.215Z,94631.00
2023-01-28T18:00:45.566Z,94613.00
2023-01-28T18:05:03.016Z,94636.00
2023-01-28T18:09:30.909Z,94625.00
2023-01-28T18:13:59.058Z,94647.00
2023-01-28T18:18:25.811Z,94644.00
2023-01-28T18:22:41.534Z,94629.00
2023-01-28T18:27:00.177Z,94637.00
2023-01-28T18:31:22.944Z,94636.00
2023-01-28T18:35:28.827Z,94657.00
2023-01-28T18:39:34.846Z,94651.00
2023-01-28T18:43:43.376Z,94621.00
2023-01-28T18:52:19.324Z,94637.00
2023-01-28T18:56:24.733Z,94637.00
2023-01-28T19:00:36.895Z,94665.00
2023-01-28T19:04:43.385Z,94662.00
2023-01-28T19:09:31.110Z,94639.00
2023-01-28T19:13:41.783Z,94655.00
2023-01-28T19:17:54.752Z,94655.00
2023-01-28T19:22:08.246Z,94640.00
2023-01-28T19:26:17.019Z,94656.00
2023-01-28T19:30:24.123Z,94659.00
2023-01-28T19:34:36.605Z,94667.00
2023-01-28T19:43:23.227Z,94669.00
2023-01-28T19:47:30.458Z,94658.00
2023-01-28T19:51:35.896Z,94674.00
2023-01-28T19:55:52.096Z,94682.00
2023-01-28T19:59:57.843Z,94676.00
2023-01-28T20:04:20.821Z,94692.00
2023-01-28T20:08:43.375Z,94681.00
2023-01-28T20:12:48.601Z,94706.00
2023-01-28T20:17:00.704Z,94706.00
2023-01-28T20:21:07.709Z,94704.00
2023-01-28T20:25:20.113Z,94708.00
2023-01-28T20:29:34.039Z,94695.00
2023-01-28T20:33:42.941Z,94692.00
2023-01-28T20:38:15.466Z,94691.00
2023-01-28T20:42:46.560Z,94711.00
2023-01-28T20:46:59.307Z,94708.00
2023-01-28T20:51:08.284Z,94692.00
2023-01-28T20:55:13.397Z,94708.00
2023-01-28T20:59:24.347Z,94733.00
2023-01-28T21:03:33.107Z,94731.00
2023-01-28T21:07:39.268Z,94715.00
2023-01-28T21:11:42.750Z,94739.00
2023-01-28T21:15:56.839Z,94725.00
2023-01-28T21:20:21.042Z,94726.00
2023-01-28T21:24:27.239Z,94751.00
2023-01-28T21:29:02.144Z,94750.00
2023-01-28T21:33:16.760Z,94731.00
2023-01-28T21:37:27.366Z,94738.00
2023-01-28T21:41:38.596Z,94773.00
2023-01-28T21:45:52.198Z,94739.00
2023-01-28T21:49:59.342Z,94763.00
2023-01-28T21:54:35.401Z,94756.00
2023-01-28T21:58:59.673Z,94751.00
2023-01-28T22:07:24.921Z,94764.00
2023-01-28T22:11:37.850Z,94769.00
2023-01-28T22:15:48.372Z,94751.00
2023-01-28T22:19:55.777Z,94755.00
2023-01-28T22:24:14.806Z,94769.00
2023-01-28T22:28:34.731Z,94739.00
2023-01-28T22:32:52.069Z,94741.00
2023-01-28T22:37:07.766Z,94746.00
2023-01-28T22:41:14.649Z,94753.00
2023-01-28T22:45:27.662Z,94736.00
2023-01-28T22:49:48.174Z,94765.00
2023-01-28T22:53:53.660Z,94775.00
2023-01-28T22:57:58.126Z,94734.00
2023-01-28T23:02:03.658Z,94767.00
2023-01-28T23:06:10.659Z,94766.00
2023-01-28T23:10:36.714Z,94745.00
2023-01-28T23:14:58.449Z,94736.00
2023-01-28T23:19:22.613Z,94773.00
2023-01-28T23:23:43.395Z,94773.00
2023-01-28T23:27:47.034Z,94745.00
2023-01-28T23:31:58.772Z,94737.00
2023-01-28T23:36:10.401Z,94731.00
2023-01-28T23:40:29.507Z,94744.00
2023-01-28T23:44:36.046Z,94737.00
2023-01-28T23:48:47.289Z,94742.00
2023-01-28T23:52:56.804Z,94723.00
2023-01-28T23:57:10.147Z,94719.00
